PATL/TLJ METAR and TAF weather

Enter ICAO airport designator
Station Type Date Time Source
PATL METAR 2019/04/25 09:55 UTC NOAA

PATL 250955Z AUTO 05002KT 10SM CLR 00/M07 A3013 RMK AO2 SLP217 T00031072


Station Type Date Time Source
PATL Decoded METAR 2019/04/25 09:55 UTC NOAA

Takotna, Tatalina LRRS Airport, AK, United States (PATL) 62-54N 155-59W
Apr 25, 2019 - 05:55 AM EDT / 2019.04.25 0955 UTC
Wind: from the NE (050 degrees) at 2 MPH (2 KT):0
Visibility: 10 mile(s):0
Sky conditions: clear
Temperature: 32.5 F (0.3 C)
Dew Point: 19.0 F (-7.2 C)
Relative Humidity: 57%
Pressure (altimeter): 30.13 in. Hg (1020 hPa)
ob: PATL 250955Z AUTO 05002KT 10SM CLR 00/M07 A3013 RMK AO2 SLP217 T00031072
cycle: 10

Station Type Date Time Source
PATL TAF 2012/01/12 14:06 UTC NOAA

TAF PATL 1214/1320 VRB06KT 9999 FEW050 SCT110 QNH2998INS TM26/1300Z TM32/1315Z

Example: see airport list